Time;durP1;ratioP1;P1;durP2;ratioP2;P2;SDS_P1;SDS_P2;PMS_P1;PMS_P2;Temp;Humidity;BMP_temperature;BMP_pressure;BME280_temperature;BME280_humidity;BME280_pressure;Samples;Min_cycle;Max_cycle;Signal;HPM_P1;HPM_P2
2023/06/28 00:07:49;;;;;;;4.77;2.40;;;20.90;54.30;;;;;;20913534;28;20245;-71
2023/06/28 00:17:50;;;;;;;5.23;2.53;;;20.80;54.70;;;;;;20878308;28;20287;-72
2023/06/28 00:27:52;;;;;;;3.20;1.93;;;20.70;55.10;;;;;;20828917;28;20266;-68
2023/06/28 00:37:55;;;;;;;3.83;2.23;;;20.70;55.10;;;;;;20828958;28;20287;-66
2023/06/28 00:47:57;;;;;;;7.50;2.47;;;20.80;55.10;;;;;;20828124;28;20240;-64
2023/06/28 00:58:01;;;;;;;7.67;2.60;;;20.60;55.30;;;;;;20840255;28;20246;-65
2023/06/28 01:08:04;;;;;;;6.60;2.70;;;20.50;56.00;;;;;;20882449;28;20717;-67
2023/06/28 01:18:06;;;;;;;6.00;2.33;;;20.40;56.50;;;;;;20924410;28;20203;-71
2023/06/28 01:28:09;;;;;;;4.00;2.40;;;20.30;57.30;;;;;;20865129;28;20235;-66
2023/06/28 01:38:12;;;;;;;4.90;2.47;;;20.10;58.00;;;;;;20840602;28;20208;-68
2023/06/28 01:48:14;;;;;;;4.43;2.27;;;19.90;59.00;;;;;;20839244;28;20238;-69
2023/06/28 01:58:15;;;;;;;3.17;2.33;;;19.70;59.70;;;;;;20986179;28;20237;-66
2023/06/28 02:08:17;;;;;;;4.20;2.50;;;19.50;60.20;;;;;;20973468;28;20268;-69
2023/06/28 02:18:24;;;;;;;5.07;2.40;;;19.20;60.70;;;;;;20919999;28;20287;-66
2023/06/28 02:28:26;;;;;;;5.57;2.63;;;19.00;61.60;;;;;;20967336;28;20284;-66
2023/06/28 02:38:28;;;;;;;7.40;2.70;;;18.90;62.00;;;;;;20994231;28;20641;-70
2023/06/28 02:48:30;;;;;;;4.67;3.60;;;18.90;62.60;;;;;;20918036;28;20238;-70
2023/06/28 02:58:32;;;;;;;7.23;2.60;;;18.80;63.30;;;;;;20953326;28;20248;-64
2023/06/28 03:08:33;;;;;;;4.63;2.73;;;18.70;64.00;;;;;;20998742;28;20267;-72
2023/06/28 03:18:36;;;;;;;5.23;2.70;;;18.70;64.60;;;;;;20942035;28;20200;-68
2023/06/28 03:28:37;;;;;;;7.27;2.73;;;18.50;64.80;;;;;;20996798;28;20227;-72
2023/06/28 03:38:39;;;;;;;5.90;2.80;;;18.40;65.60;;;;;;20965957;28;20317;-64
2023/06/28 03:48:41;;;;;;;7.93;3.37;;;18.50;66.10;;;;;;20912363;28;20247;-62
2023/06/28 03:58:42;;;;;;;7.43;3.00;;;18.70;66.30;;;;;;20844112;28;20299;-69
2023/06/28 04:08:46;;;;;;;6.33;2.73;;;18.70;66.60;;;;;;20858687;28;20244;-64
2023/06/28 04:18:48;;;;;;;5.63;3.20;;;18.90;66.70;;;;;;20864427;28;20212;-66
2023/06/28 04:28:50;;;;;;;6.17;2.67;;;19.00;66.90;;;;;;20840184;28;20235;-72
2023/06/28 04:38:52;;;;;;;4.67;3.10;;;19.10;67.20;;;;;;20870011;28;20679;-66
2023/06/28 04:48:56;;;;;;;6.20;3.73;;;19.20;67.30;;;;;;20842599;28;20782;-66
2023/06/28 04:58:58;;;;;;;8.00;3.10;;;19.40;67.50;;;;;;20868979;28;20226;-67
2023/06/28 05:09:00;;;;;;;13.80;3.47;;;19.50;66.90;;;;;;20925499;28;20235;-64
2023/06/28 05:19:02;;;;;;;6.67;3.30;;;19.50;66.60;;;;;;20871019;28;20203;-67
2023/06/28 05:29:04;;;;;;;11.23;3.60;;;19.50;67.00;;;;;;20931052;28;20658;-68
2023/06/28 05:39:06;;;;;;;11.70;4.03;;;19.80;66.70;;;;;;20872901;28;20329;-69
2023/06/28 05:49:11;;;;;;;9.60;4.80;;;20.20;66.10;;;;;;20878636;28;20270;-70
2023/06/28 05:59:13;;;;;;;12.03;3.30;;;20.50;65.00;;;;;;20952997;28;20269;-76
2023/06/28 06:09:15;;;;;;;11.63;4.13;;;20.70;64.20;;;;;;20995232;28;20230;-73
2023/06/28 06:19:16;;;;;;;10.60;3.53;;;20.90;63.20;;;;;;20966388;28;20717;-72
2023/06/28 06:29:18;;;;;;;6.53;3.07;;;20.90;63.20;;;;;;20997302;28;20678;-65
2023/06/28 06:39:20;;;;;;;8.80;3.57;;;20.90;62.80;;;;;;20949746;28;20266;-64
2023/06/28 06:49:21;;;;;;;11.33;3.50;;;21.20;62.90;;;;;;20948623;28;20227;-61
2023/06/28 06:59:23;;;;;;;6.83;3.10;;;21.50;62.50;;;;;;20945732;28;20705;-59
2023/06/28 07:09:28;;;;;;;13.57;3.20;;;22.00;61.70;;;;;;20958865;28;20224;-63
2023/06/28 07:19:30;;;;;;;6.37;2.80;;;22.00;60.00;;;;;;20950408;28;20207;-65
2023/06/28 07:29:33;;;;;;;10.73;3.10;;;22.30;60.00;;;;;;20959821;28;20219;-60
2023/06/28 07:39:34;;;;;;;4.23;2.90;;;22.30;58.70;;;;;;20955709;28;20302;-66
2023/06/28 07:49:36;;;;;;;4.80;2.50;;;22.20;57.60;;;;;;20949413;28;20219;-60
2023/06/28 07:59:38;;;;;;;12.20;6.23;;;22.20;58.10;;;;;;20953879;28;20287;-61
2023/06/28 08:09:39;;;;;;;9.23;2.87;;;22.30;56.80;;;;;;20933721;28;20353;-59
2023/06/28 08:19:41;;;;;;;2.73;1.83;;;22.30;56.70;;;;;;20952896;28;20606;-59
2023/06/28 08:29:43;;;;;;;6.93;2.43;;;22.60;55.00;;;;;;20912800;28;20271;-62
2023/06/28 08:39:45;;;;;;;7.43;2.60;;;22.70;55.00;;;;;;20888922;28;20605;-67
2023/06/28 08:49:47;;;;;;;6.13;2.03;;;22.80;54.40;;;;;;20900676;28;20769;-68
2023/06/28 08:59:50;;;;;;;5.37;2.10;;;23.10;53.10;;;;;;20893035;28;20200;-62
2023/06/28 09:09:53;;;;;;;2.53;1.60;;;23.30;52.30;;;;;;20885612;28;20262;-60
2023/06/28 09:20:15;;;;;;;4.27;1.90;;;23.00;51.50;;;;;;20923805;28;20287;-67
2023/06/28 09:30:18;;;;;;;3.23;1.83;;;23.10;51.40;;;;;;20904642;28;20314;-59
2023/06/28 09:40:20;;;;;;;13.33;11.40;;;23.30;50.80;;;;;;20891849;28;20247;-67
2023/06/28 09:50:47;;;;;;;5.83;2.47;;;24.00;49.90;;;;;;20915673;28;20237;-67
2023/06/28 10:00:50;;;;;;;6.30;2.03;;;24.10;49.50;;;;;;20948568;28;20208;-66
2023/06/28 10:10:55;;;;;;;5.33;2.10;;;24.30;49.80;;;;;;20967143;28;20267;-64
2023/06/28 10:20:59;;;;;;;12.43;6.53;;;24.40;48.80;;;;;;20918201;28;20295;-60
2023/06/28 10:31:03;;;;;;;5.40;2.53;;;24.00;48.60;;;;;;20917159;28;20224;-66
2023/06/28 10:41:05;;;;;;;8.60;2.93;;;24.00;49.40;;;;;;20917213;28;20232;-66
2023/06/28 10:51:12;;;;;;;7.77;2.30;;;23.90;49.50;;;;;;20879552;28;20292;-65
2023/06/28 11:01:48;;;;;;;3.57;2.83;;;24.40;49.40;;;;;;20955217;28;20212;-70
2023/06/28 11:11:56;;;;;;;7.33;2.70;;;24.30;49.30;;;;;;20951150;28;20233;-66
2023/06/28 11:21:59;;;;;;;7.87;2.57;;;24.20;49.70;;;;;;20956097;28;20200;-67
2023/06/28 11:32:01;;;;;;;8.67;3.23;;;24.30;49.40;;;;;;20951505;28;20306;-68
2023/06/28 11:42:03;;;;;;;2.73;2.10;;;24.70;48.80;;;;;;20963773;28;20650;-66
2023/06/28 11:52:09;;;;;;;7.07;2.40;;;24.50;48.60;;;;;;20976273;28;20227;-61
2023/06/28 12:02:11;;;;;;;6.80;2.50;;;24.40;49.10;;;;;;20992004;28;20667;-61
2023/06/28 12:12:13;;;;;;;8.70;2.43;;;24.90;48.80;;;;;;20993493;28;20693;-73
2023/06/28 12:22:14;;;;;;;4.30;2.10;;;25.50;48.30;;;;;;20993465;28;20207;-70
2023/06/28 12:32:16;;;;;;;5.17;2.10;;;25.60;47.50;;;;;;20982901;28;20230;-70
2023/06/28 12:42:22;;;;;;;4.27;2.00;;;25.50;46.60;;;;;;20893035;28;20245;-71
2023/06/28 12:52:25;;;;;;;6.47;2.53;;;25.80;46.40;;;;;;20960441;28;20278;-70
2023/06/28 13:02:27;;;;;;;3.57;1.97;;;25.90;46.20;;;;;;21007419;28;20204;-70
2023/06/28 13:12:29;;;;;;;4.77;2.67;;;25.70;47.00;;;;;;21005823;28;20231;-66
2023/06/28 13:22:30;;;;;;;5.77;2.37;;;25.80;46.10;;;;;;21006130;28;20286;-64
2023/06/28 13:32:32;;;;;;;4.87;2.03;;;25.90;46.00;;;;;;21008682;28;20227;-71
2023/06/28 13:42:34;;;;;;;6.87;3.93;;;26.20;46.00;;;;;;20967113;28;20595;-73
2023/06/28 13:52:36;;;;;;;3.77;2.30;;;26.00;45.60;;;;;;21081589;28;20234;-70
2023/06/28 14:02:38;;;;;;;5.27;2.33;;;26.20;45.20;;;;;;20956988;28;20195;-63
2023/06/28 14:12:41;;;;;;;9.63;2.27;;;26.40;44.80;;;;;;21001499;28;20500;-70
2023/06/28 14:22:47;;;;;;;2.47;1.70;;;26.30;44.30;;;;;;21002429;28;20235;-71
2023/06/28 14:32:50;;;;;;;2.88;2.00;;;27.20;43.50;;;;;;20999965;28;20318;-76
2023/06/28 14:42:54;;;;;;;4.05;2.63;;;27.50;42.70;;;;;;20986253;28;20232;-69
2023/06/28 14:52:56;;;;;;;5.93;2.50;;;28.10;42.60;;;;;;20914478;28;20408;-72
2023/06/28 15:02:58;;;;;;;4.30;2.17;;;27.80;42.60;;;;;;20916387;28;20699;-73
2023/06/28 15:13:00;;;;;;;6.63;2.40;;;28.20;42.50;;;;;;20915620;28;20275;-72
2023/06/28 15:23:06;;;;;;;4.18;2.03;;;29.40;40.30;;;;;;20915141;28;20623;-70
2023/06/28 15:33:09;;;;;;;4.32;1.95;;;29.60;39.20;;;;;;20914452;28;20235;-71
2023/06/28 15:43:11;;;;;;;5.65;2.28;;;29.10;39.50;;;;;;20913366;28;20285;-71
2023/06/28 15:53:13;;;;;;;3.97;2.28;;;28.00;40.40;;;;;;20912741;28;20224;-72
2023/06/28 16:03:15;;;;;;;5.38;2.80;;;29.80;38.80;;;;;;20912653;28;20295;-70
2023/06/28 16:13:18;;;;;;;3.45;1.90;;;30.10;38.50;;;;;;20911612;28;20233;-71
2023/06/28 16:23:19;;;;;;;2.20;1.70;;;31.80;35.20;;;;;;20917481;28;20204;-73
2023/06/28 16:33:21;;;;;;;3.90;1.63;;;35.50;32.50;;;;;;20933570;28;20278;-70
2023/06/28 16:43:23;;;;;;;3.90;2.00;;;32.20;34.00;;;;;;20927466;28;20242;-71
2023/06/28 16:53:25;;;;;;;7.05;1.90;;;29.40;37.00;;;;;;20926800;28;20241;-71
2023/06/28 17:03:26;;;;;;;2.92;2.05;;;28.70;37.70;;;;;;20948686;28;20196;-72
2023/06/28 17:13:29;;;;;;;4.28;1.90;;;29.70;38.20;;;;;;21008495;28;20266;-69
2023/06/28 17:23:30;;;;;;;3.45;2.30;;;31.90;36.80;;;;;;21005295;28;20199;-61
2023/06/28 17:33:32;;;;;;;7.90;2.40;;;36.80;32.00;;;;;;21001798;28;20234;-64
2023/06/28 17:43:34;;;;;;;12.60;2.20;;;38.10;29.80;;;;;;21007669;28;20233;-70
2023/06/28 17:53:36;;;;;;;4.35;2.05;;;41.70;27.60;;;;;;21003761;28;20227;-62
2023/06/28 18:03:38;;;;;;;4.00;2.10;;;40.40;27.30;;;;;;21000717;28;20204;-71
2023/06/28 18:13:40;;;;;;;2.47;2.20;;;35.50;30.00;;;;;;21002555;28;20266;-70
2023/06/28 18:23:41;;;;;;;4.05;2.42;;;30.20;35.60;;;;;;20981899;28;20567;-70
2023/06/28 18:33:43;;;;;;;9.00;2.60;;;28.00;39.40;;;;;;21005072;28;20263;-64
2023/06/28 18:43:45;;;;;;;3.57;2.30;;;26.60;42.30;;;;;;21016945;28;20280;-65
2023/06/28 18:53:47;;;;;;;4.70;2.50;;;25.80;43.80;;;;;;20970373;28;20777;-62
2023/06/28 19:03:48;;;;;;;5.27;2.53;;;25.20;45.70;;;;;;21024481;28;20200;-70
2023/06/28 19:13:50;;;;;;;7.77;2.70;;;24.90;46.50;;;;;;20997011;28;20589;-67
2023/06/28 19:23:52;;;;;;;16.40;3.03;;;24.50;48.00;;;;;;20990854;28;20211;-69
2023/06/28 19:33:54;;;;;;;6.47;2.60;;;24.30;48.80;;;;;;20993390;28;20230;-62
2023/06/28 19:43:55;;;;;;;7.43;3.03;;;24.00;49.50;;;;;;20934241;28;20596;-64
2023/06/28 19:53:57;;;;;;;4.80;3.20;;;23.80;50.30;;;;;;21022075;28;20237;-62
2023/06/28 20:03:59;;;;;;;3.03;2.50;;;23.60;50.90;;;;;;20991903;28;20235;-66
2023/06/28 20:14:01;;;;;;;5.90;2.83;;;23.40;51.30;;;;;;20977680;28;20227;-64
2023/06/28 20:24:03;;;;;;;7.03;3.10;;;23.10;51.60;;;;;;20910850;28;20286;-62
2023/06/28 20:34:07;;;;;;;8.57;3.07;;;22.90;53.40;;;;;;20892257;28;20270;-68
2023/06/28 20:44:09;;;;;;;6.00;3.27;;;22.50;54.50;;;;;;20910423;28;20319;-66
2023/06/28 20:54:11;;;;;;;4.90;3.20;;;22.20;55.00;;;;;;20954943;28;20230;-60
2023/06/28 21:04:12;;;;;;;6.33;3.20;;;22.00;55.60;;;;;;20988839;28;20286;-59
2023/06/28 21:14:14;;;;;;;18.03;3.77;;;21.80;56.10;;;;;;20997866;28;20242;-60
2023/06/28 21:24:17;;;;;;;4.60;3.53;;;21.60;56.70;;;;;;21006781;28;20295;-62
2023/06/28 21:34:18;;;;;;;11.50;3.63;;;21.50;57.00;;;;;;21005781;28;20258;-60
2023/06/28 21:44:22;;;;;;;5.70;3.50;;;21.30;58.60;;;;;;21005246;28;20240;-63
2023/06/28 21:54:24;;;;;;;5.23;3.20;;;20.90;59.10;;;;;;20984128;28;20317;-59
2023/06/28 22:04:26;;;;;;;5.70;3.50;;;20.70;59.80;;;;;;21008975;28;20209;-65
2023/06/28 22:14:28;;;;;;;6.93;3.60;;;20.60;59.90;;;;;;20972665;28;20285;-60
2023/06/28 22:24:30;;;;;;;17.17;3.97;;;20.40;61.10;;;;;;20970234;28;20310;-60
2023/06/28 22:34:31;;;;;;;6.67;3.40;;;20.10;62.00;;;;;;20948463;28;20237;-60
2023/06/28 22:44:33;;;;;;;5.53;3.30;;;19.90;62.60;;;;;;20927501;28;20235;-59
2023/06/28 22:54:35;;;;;;;4.63;3.60;;;19.90;63.30;;;;;;20980609;28;20236;-60
2023/06/28 23:12:19;;;;;;;10.00;3.80;;;;;;;;;;20983603;28;20590;-58
2023/06/28 23:22:22;;;;;;;5.73;3.60;;;19.50;65.40;;;;;;20899273;28;20633;-57
2023/06/28 23:32:26;;;;;;;7.30;3.90;;;;;;;;;;20899838;28;20216;-58
2023/06/28 23:42:28;;;;;;;10.97;4.60;;;19.30;66.30;;;;;;20899051;28;20287;-57
2023/06/28 23:52:30;;;;;;;5.73;3.60;;;;;;;;;;20897918;28;20242;-58
